Time;durP1;ratioP1;P1;durP2;ratioP2;P2;SDS_P1;SDS_P2;PMS_P1;PMS_P2;Temp;Humidity;BMP_temperature;BMP_pressure;BME280_temperature;BME280_humidity;BME280_pressure;Samples;Min_cycle;Max_cycle;Signal;HPM_P1;HPM_P2
2021/03/08 00:02:28;;;;;;;57.23;25.23;;;;;;;0.10;100.00;99087.88;4391159;79;43239;-90
2021/03/08 00:08:30;;;;;;;49.55;23.18;;;;;;;0.07;100.00;99086.37;4392683;79;44454;-89
2021/03/08 00:14:34;;;;;;;50.43;22.48;;;;;;;-0.01;100.00;99088.99;4378496;80;43988;-89
2021/03/08 00:20:36;;;;;;;47.05;21.85;;;;;;;0.01;100.00;99078.27;4390553;79;43799;-89
2021/03/08 00:26:38;;;;;;;47.27;21.85;;;;;;;0.01;100.00;99083.08;4395697;79;43771;-87
2021/03/08 00:32:44;;;;;;;45.17;20.12;;;;;;;0.04;100.00;99081.42;4396698;79;43764;-89
2021/03/08 00:38:46;;;;;;;44.65;20.25;;;;;;;-0.02;100.00;99072.80;4363461;80;43806;-86
2021/03/08 00:44:48;;;;;;;39.33;19.17;;;;;;;-0.01;100.00;99073.13;4308571;81;44456;-87
2021/03/08 00:50:50;;;;;;;42.70;18.80;;;;;;;0.05;100.00;99061.08;4323535;80;43671;-85
2021/03/08 00:56:54;;;;;;;39.20;16.85;;;;;;;0.05;100.00;99062.41;4405061;80;44438;-86
2021/03/08 01:02:58;;;;;;;39.42;17.73;;;;;;;0.03;100.00;99059.94;4278232;81;44469;-86
2021/03/08 01:09:07;;;;;;;35.13;17.85;;;;;;;-0.02;100.00;99067.52;4347857;80;44179;-88
2021/03/08 01:15:12;;;;;;;34.13;15.75;;;;;;;0.00;100.00;99070.84;4329371;80;44080;-86
2021/03/08 01:21:14;;;;;;;42.33;18.15;;;;;;;0.03;100.00;99062.59;4354830;80;44423;-88
2021/03/08 01:27:16;;;;;;;34.50;16.17;;;;;;;0.06;100.00;99054.83;4353075;80;44266;-87
2021/03/08 01:33:20;;;;;;;34.45;16.37;;;;;;;0.11;100.00;99054.67;4369194;81;44252;-87
2021/03/08 01:39:23;;;;;;;33.38;15.58;;;;;;;0.07;100.00;99048.55;4346177;80;44100;-87
2021/03/08 01:45:26;;;;;;;29.72;14.95;;;;;;;0.13;100.00;99047.88;4364658;80;44114;-86
2021/03/08 01:51:29;;;;;;;33.65;16.27;;;;;;;0.17;100.00;99043.09;4349036;80;44110;-84
2021/03/08 01:57:32;;;;;;;35.45;16.45;;;;;;;0.17;100.00;99037.33;4349859;81;44427;-85
2021/03/08 02:03:35;;;;;;;31.68;15.43;;;;;;;0.20;100.00;99045.41;4349380;80;44457;-86
2021/03/08 02:09:37;;;;;;;30.88;15.88;;;;;;;0.23;100.00;99042.45;4354616;81;44124;-85
2021/03/08 02:16:06;;;;;;;29.80;14.55;;;;;;;0.22;100.00;99038.16;4349088;80;43429;-86
2021/03/08 02:22:40;;;;;;;29.70;15.95;;;;;;;0.24;100.00;99037.50;4336203;80;44088;-86
2021/03/08 02:28:57;;;;;;;29.80;14.25;;;;;;;0.20;100.00;99029.06;4363174;80;43406;-88
2021/03/08 02:35:19;;;;;;;29.52;14.65;;;;;;;0.26;100.00;99029.73;4370337;81;44194;-88
2021/03/08 02:41:24;;;;;;;29.12;15.18;;;;;;;0.29;100.00;99028.56;4359036;80;43756;-89
2021/03/08 02:47:30;;;;;;;28.90;14.45;;;;;;;0.32;100.00;99028.73;4361524;80;43416;-87
2021/03/08 02:53:40;;;;;;;30.50;14.58;;;;;;;0.38;100.00;99024.12;4358399;80;44116;-87
2021/03/08 02:59:48;;;;;;;27.85;13.95;;;;;;;0.35;100.00;99028.39;4367024;80;43410;-85
2021/03/08 03:05:51;;;;;;;28.23;13.58;;;;;;;0.42;100.00;99029.40;4370381;80;43426;-85
2021/03/08 03:11:55;;;;;;;30.95;16.25;;;;;;;0.37;100.00;99037.02;4370267;80;44080;-85
2021/03/08 03:17:59;;;;;;;29.07;14.28;;;;;;;0.36;100.00;99033.53;4350235;80;43410;-87
2021/03/08 03:24:02;;;;;;;31.75;15.23;;;;;;;0.37;100.00;99031.73;4359079;80;44092;-87
2021/03/08 03:30:07;;;;;;;31.40;15.10;;;;;;;0.37;100.00;99031.73;4364348;80;44172;-87
2021/03/08 03:36:10;;;;;;;26.63;14.67;;;;;;;0.33;100.00;99009.23;4344492;81;28605;-87
2021/03/08 03:42:12;;;;;;;27.62;14.58;;;;;;;0.36;100.00;99003.59;4364853;81;43299;-86
2021/03/08 03:48:14;;;;;;;30.90;15.15;;;;;;;0.32;100.00;99015.03;4371302;81;44100;-87
2021/03/08 03:54:16;;;;;;;28.50;13.83;;;;;;;0.25;100.00;99020.13;4370494;80;43484;-88
2021/03/08 04:00:23;;;;;;;26.65;14.50;;;;;;;0.19;100.00;99010.22;4370384;81;43414;-85
2021/03/08 04:06:36;;;;;;;27.22;14.43;;;;;;;0.20;100.00;99005.27;4369427;81;43399;-87
2021/03/08 04:12:41;;;;;;;30.10;15.15;;;;;;;0.23;100.00;99022.62;4333464;81;43734;-86
2021/03/08 04:18:46;;;;;;;25.60;13.90;;;;;;;0.23;100.00;99027.40;4366726;80;42875;-85
2021/03/08 04:24:49;;;;;;;27.20;13.90;;;;;;;0.31;100.00;99037.66;4364683;80;34435;-83
2021/03/08 04:30:51;;;;;;;30.70;14.98;;;;;;;0.36;100.00;99032.21;4361295;80;44108;-83
2021/03/08 04:36:55;;;;;;;29.85;14.75;;;;;;;0.40;100.00;99024.77;4360521;81;44080;-83
2021/03/08 04:42:58;;;;;;;28.45;13.65;;;;;;;0.48;100.00;99038.48;4348608;81;43394;-86
2021/03/08 04:49:01;;;;;;;32.48;15.75;;;;;;;0.46;100.00;99025.41;4360691;80;44083;-84
2021/03/08 04:55:08;;;;;;;27.37;13.78;;;;;;;0.53;100.00;99030.90;4381090;80;43237;-83
2021/03/08 05:01:11;;;;;;;29.80;14.95;;;;;;;0.52;100.00;99028.73;4383561;80;44103;-83
2021/03/08 05:07:22;;;;;;;28.10;13.88;;;;;;;0.51;100.00;99035.02;4356877;80;43433;-83
2021/03/08 05:13:26;;;;;;;29.57;14.75;;;;;;;0.47;100.00;99044.30;4395362;80;44130;-84
2021/03/08 05:19:28;;;;;;;28.50;14.43;;;;;;;0.57;100.00;99042.79;4399394;81;43401;-83
2021/03/08 05:25:32;;;;;;;27.85;13.25;;;;;;;0.63;100.00;99038.66;4399751;80;43491;-83
2021/03/08 05:31:38;;;;;;;27.40;13.60;;;;;;;0.61;100.00;99045.94;4399231;81;43386;-85
2021/03/08 05:37:42;;;;;;;25.55;13.58;;;;;;;0.67;100.00;99054.03;4396183;81;43318;-83
2021/03/08 05:43:48;;;;;;;27.90;14.60;;;;;;;0.52;100.00;99056.52;4397723;81;43397;-84
2021/03/08 05:50:04;;;;;;;22.02;11.55;;;;;;;0.72;100.00;99056.18;4385008;80;44469;-83
2021/03/08 05:56:27;;;;;;;28.70;14.87;;;;;;;0.72;100.00;99056.66;4386987;81;43406;-82
2021/03/08 06:03:08;;;;;;;28.87;14.65;;;;;;;0.65;100.00;99069.25;4377514;81;43378;-85
2021/03/08 06:09:28;;;;;;;32.45;16.10;;;;;;;0.68;100.00;99078.69;4388988;81;44131;-84
2021/03/08 06:15:34;;;;;;;29.25;14.33;;;;;;;0.64;100.00;99087.94;4372007;80;43409;-85
2021/03/08 06:21:36;;;;;;;;;;;;;;;0.65;100.00;99089.10;4374867;81;28652;-81
2021/03/08 06:27:43;;;;;;;33.73;17.35;;;;;;;0.24;100.00;99104.42;4392384;80;44103;-82
2021/03/08 06:33:46;;;;;;;33.90;16.67;;;;;;;0.46;100.00;99111.91;4376451;80;44114;-84
2021/03/08 06:39:48;;;;;;;37.30;17.57;;;;;;;0.37;100.00;99108.44;4348879;81;44427;-89
2021/03/08 06:45:50;;;;;;;39.60;17.92;;;;;;;0.52;100.00;99104.62;4369931;81;44454;-88
2021/03/08 06:52:12;;;;;;;35.58;18.50;;;;;;;0.66;100.00;99122.51;4316257;82;44449;-89
2021/03/08 06:58:18;;;;;;;39.78;19.00;;;;;;;0.54;100.00;99129.12;4373070;80;44422;-88
2021/03/08 07:04:24;;;;;;;42.38;20.60;;;;;;;0.57;100.00;99139.36;4319466;81;43745;-87
2021/03/08 07:10:41;;;;;;;;;;;;;;;0.47;100.00;99157.20;4392844;80;28579;-86
2021/03/08 07:16:43;;;;;;;39.83;18.90;;;;;;;0.48;100.00;99160.19;4307843;81;44424;-87
2021/03/08 07:22:54;;;;;;;38.05;19.20;;;;;;;0.52;100.00;99172.09;4352086;82;44475;-88
2021/03/08 07:29:12;;;;;;;43.08;19.20;;;;;;;0.63;100.00;99164.34;4358463;81;43824;-88
2021/03/08 07:35:15;;;;;;;45.30;21.33;;;;;;;0.60;100.00;99173.94;4320790;82;43852;-88
2021/03/08 07:41:22;;;;;;;42.27;21.87;;;;;;;0.73;100.00;99172.96;4327303;82;43738;-88
2021/03/08 07:47:24;;;;;;;43.48;21.95;;;;;;;0.89;100.00;99176.11;4344686;81;43799;-90
2021/03/08 07:53:35;;;;;;;38.10;20.35;;;;;;;0.99;100.00;99180.42;4380790;80;43673;-89
2021/03/08 07:59:38;;;;;;;46.15;21.17;;;;;;;1.18;100.00;99180.57;4348271;81;43773;-89
2021/03/08 08:05:40;;;;;;;49.00;22.40;;;;;;;1.27;100.00;99188.84;4300093;81;44452;-90
2021/03/08 08:11:45;;;;;;;46.02;21.50;;;;;;;1.26;100.00;99191.17;4351437;81;43766;-90
2021/03/08 08:17:48;;;;;;;46.33;22.80;;;;;;;1.19;100.00;99206.91;4350835;81;43746;-90
2021/03/08 08:23:56;;;;;;;44.63;22.07;;;;;;;1.16;100.00;99207.73;4358470;81;43773;-89
2021/03/08 08:30:02;;;;;;;50.17;24.63;;;;;;;0.96;100.00;99222.13;4359587;81;43990;-89
2021/03/08 08:36:26;;;;;;;40.55;21.02;;;;;;;1.03;100.00;99221.45;4362614;81;43753;-89
2021/03/08 08:42:31;;;;;;;46.45;24.82;;;;;;;0.97;100.00;99230.88;4361159;81;44429;-88
2021/03/08 08:48:32;;;;;;;46.48;24.32;;;;;;;1.44;100.00;99222.77;4348861;81;44511;-88
2021/03/08 08:54:43;;;;;;;42.53;21.40;;;;;;;1.32;100.00;99232.06;4328279;82;43793;-89
2021/03/08 09:01:13;;;;;;;40.55;20.60;;;;;;;1.43;100.00;99238.34;4318184;82;43574;-88
2021/03/08 09:07:28;;;;;;;27.67;14.33;;;;;;;1.71;100.00;99243.29;4299148;81;28653;-91
2021/03/08 09:13:31;;;;;;;28.10;14.13;;;;;;;1.51;100.00;99254.73;4293408;81;28636;-90
2021/03/08 09:19:34;;;;;;;28.45;14.47;;;;;;;1.85;100.00;99247.56;4302271;82;28582;-91
2021/03/08 09:31:52;;;;;;;31.42;14.80;;;;;;;2.04;100.00;99247.70;4601372;76;85487;-87
2021/03/08 09:37:57;;;;;;;;;;;;;;;2.09;100.00;99255.95;4481321;78;28618;-91
2021/03/08 09:43:59;;;;;;;22.80;11.25;;;;;;;2.64;100.00;99263.53;4498518;78;20870;-91
2021/03/08 09:50:03;;;;;;;21.60;10.90;;;;;;;2.72;100.00;99269.81;4494711;78;28597;-89
2021/03/08 09:56:11;;;;;;;24.30;12.05;;;;;;;3.09;100.00;99274.08;4510148;78;28950;-90
2021/03/08 10:02:17;;;;;;;22.25;10.35;;;;;;;3.04;100.00;99271.95;4457551;78;28585;-91
2021/03/08 10:08:20;;;;;;;;;;;;;;;2.93;100.00;99281.13;4498411;78;28538;-89
2021/03/08 10:14:28;;;;;;;18.45;9.23;;;;;;;2.74;100.00;99283.22;4500333;78;20186;-89
2021/03/08 10:20:32;;;;;;;22.27;10.60;;;;;;;2.81;100.00;99297.95;4480551;78;28612;-93
2021/03/08 10:26:35;;;;;;;17.35;9.48;;;;;;;2.45;100.00;99309.92;4488312;77;28622;-90
2021/03/08 10:32:38;;;;;;;18.80;9.40;;;;;;;2.73;100.00;99298.83;4492101;78;28581;-91
2021/03/08 10:38:41;;;;;;;17.87;9.45;;;;;;;3.01;100.00;99306.81;4375011;80;28691;-92
2021/03/08 10:44:44;;;;;;;19.95;9.58;;;;;;;3.51;100.00;99308.66;4317162;81;28558;-93
2021/03/08 10:50:52;;;;;;;17.73;9.63;;;;;;;3.78;100.00;99303.76;4368118;81;28586;-90
2021/03/08 10:56:59;;;;;;;11.12;4.50;;;;;;;3.66;100.00;99318.01;4328900;80;28667;-89
2021/03/08 11:03:01;;;;;;;9.50;4.83;;;;;;;3.24;100.00;99321.45;4342319;80;28546;-85
2021/03/08 11:09:05;;;;;;;10.58;4.95;;;;;;;3.48;100.00;99316.47;4381770;80;28552;-86
2021/03/08 11:15:10;;;;;;;11.97;4.97;;;;;;;3.41;100.00;99312.86;4322274;80;28726;-86
2021/03/08 11:21:30;;;;;;;12.78;5.25;;;;;;;3.72;100.00;99309.30;4335487;80;28626;-87
2021/03/08 11:27:33;;;;;;;7.65;4.67;;;;;;;3.37;100.00;99314.23;4343059;81;28599;-86
2021/03/08 11:33:37;;;;;;;9.58;4.55;;;;;;;3.32;100.00;99316.58;4345575;80;28587;-87
2021/03/08 11:39:55;;;;;;;10.18;4.70;;;;;;;3.73;100.00;99316.78;4329012;80;28563;-83
2021/03/08 11:45:57;;;;;;;12.07;5.97;;;;;;;3.76;100.00;99318.59;4344768;80;28593;-85
2021/03/08 11:52:05;;;;;;;12.28;6.50;;;;;;;4.08;100.00;99309.13;4346999;80;28550;-84
2021/03/08 11:58:09;;;;;;;12.00;6.10;;;;;;;4.14;100.00;99320.39;4353050;80;28577;-86
2021/03/08 12:04:12;;;;;;;11.75;6.30;;;;;;;4.07;100.00;99322.64;4339602;80;28669;-85
2021/03/08 12:10:15;;;;;;;12.68;6.92;;;;;;;4.34;100.00;99323.84;4336717;80;28626;-90
2021/03/08 12:16:35;;;;;;;12.50;6.58;;;;;;;4.59;100.00;99319.06;4364141;80;28663;-88
2021/03/08 12:22:40;;;;;;;11.75;6.55;;;;;;;4.84;100.00;99320.56;4338261;80;28560;-89
2021/03/08 12:28:44;;;;;;;9.03;4.70;;;;;;;5.10;100.00;99310.75;4361206;80;28547;-87
2021/03/08 12:34:47;;;;;;;8.33;4.53;;;;;;;4.20;75.63;99317.50;4327690;81;28621;-90
2021/03/08 12:40:49;;;;;;;7.72;4.03;;;;;;;4.25;70.05;99320.42;4386994;79;28543;-92
2021/03/08 12:46:52;;;;;;;6.83;3.42;;;;;;;4.39;73.14;99306.80;4381860;80;28657;-88
2021/03/08 12:52:55;;;;;;;4.28;2.30;;;;;;;4.76;64.75;99327.36;4364461;80;28654;-90
2021/03/08 12:58:57;;;;;;;5.90;2.12;;;;;;;3.84;57.96;99331.47;4278952;81;29007;-83
2021/03/08 13:05:00;;;;;;;4.62;1.92;;;;;;;3.46;55.15;99336.25;4401899;79;28573;-85
2021/03/08 13:11:02;;;;;;;4.33;1.80;;;;;;;3.67;52.32;99338.76;4384978;80;28628;-84
2021/03/08 13:17:12;;;;;;;2.42;1.30;;;;;;;3.35;52.34;99336.99;4384049;80;28618;-85
2021/03/08 13:23:17;;;;;;;5.33;1.60;;;;;;;3.51;48.64;99341.05;4307919;81;28625;-84
2021/03/08 13:29:27;;;;;;;4.12;1.40;;;;;;;3.25;47.22;99349.69;4372540;80;28546;-84
2021/03/08 13:35:33;;;;;;;2.45;1.25;;;;;;;3.15;52.32;99349.92;4347223;80;28607;-84
2021/03/08 13:41:36;;;;;;;3.62;1.60;;;;;;;3.37;53.59;99354.59;4343987;80;28641;-83
2021/03/08 13:47:39;;;;;;;2.90;1.02;;;;;;;3.35;50.70;99370.22;4343940;80;28617;-86
2021/03/08 13:53:46;;;;;;;4.92;1.35;;;;;;;3.29;47.05;99366.95;4357480;80;28575;-90
2021/03/08 13:59:48;;;;;;;1.90;1.05;;;;;;;3.17;48.28;99363.85;4358270;80;28664;-87
2021/03/08 14:05:52;;;;;;;2.98;1.40;;;;;;;3.08;46.88;99359.58;4356304;80;28552;-85
2021/03/08 14:11:54;;;;;;;4.50;1.20;;;;;;;3.12;46.53;99356.08;4346170;80;28571;-88
2021/03/08 14:17:58;;;;;;;3.00;1.57;;;;;;;3.65;45.77;99356.24;4361551;80;28607;-87
2021/03/08 14:24:01;;;;;;;4.30;1.47;;;;;;;3.65;44.98;99362.89;4350921;81;28559;-87
2021/03/08 14:30:05;;;;;;;4.05;1.65;;;;;;;3.10;47.12;99364.22;4368878;81;28579;-88
2021/03/08 14:36:14;;;;;;;3.30;1.52;;;;;;;3.49;46.47;99361.18;4393059;81;28563;-86
2021/03/08 14:42:26;;;;;;;2.65;1.37;;;;;;;3.44;46.45;99360.37;4300278;81;28595;-86
2021/03/08 14:48:28;;;;;;;2.87;1.37;;;;;;;3.32;47.01;99365.27;4400784;80;28575;-87
2021/03/08 14:54:31;;;;;;;4.08;1.30;;;;;;;2.84;48.30;99371.98;4315489;81;28604;-86
2021/03/08 15:00:35;;;;;;;4.28;1.30;;;;;;;2.82;47.45;99374.48;4393520;79;28564;-87
2021/03/08 15:06:37;;;;;;;3.15;1.85;;;;;;;2.68;49.11;99383.50;4366344;79;28620;-85
2021/03/08 15:12:44;;;;;;;4.53;1.77;;;;;;;2.75;51.24;99382.31;4367628;81;28583;-82
2021/03/08 15:18:46;;;;;;;4.03;1.50;;;;;;;2.50;55.29;99400.46;4366151;80;28614;-82
2021/03/08 15:24:50;;;;;;;2.40;1.30;;;;;;;2.09;52.99;99405.34;4324538;80;28560;-83
2021/03/08 15:30:55;;;;;;;2.98;1.25;;;;;;;2.16;53.49;99416.59;4300971;81;28640;-83
2021/03/08 15:37:00;;;;;;;4.70;2.23;;;;;;;2.11;54.05;99417.09;4344119;80;28627;-82
2021/03/08 15:43:13;;;;;;;3.27;1.50;;;;;;;1.75;55.44;99441.30;4467546;77;74174;-81
2021/03/08 15:49:17;;;;;;;5.75;1.70;;;;;;;1.90;55.94;99433.52;4400003;80;28611;-85
2021/03/08 15:55:20;;;;;;;5.45;2.02;;;;;;;2.00;57.16;99430.69;4409077;79;28558;-84
2021/03/08 16:01:23;;;;;;;3.80;1.50;;;;;;;1.87;59.27;99438.65;4398979;79;28653;-86
2021/03/08 16:07:27;;;;;;;5.35;1.52;;;;;;;1.86;59.16;99433.02;4389752;80;28549;-88
2021/03/08 16:13:30;;;;;;;2.93;1.07;;;;;;;1.81;58.88;99430.02;4395355;80;36692;-88
2021/03/08 16:19:34;;;;;;;4.97;1.50;;;;;;;1.57;56.77;99445.41;4410747;80;28544;-86
2021/03/08 16:25:36;;;;;;;5.25;1.70;;;;;;;1.52;56.95;99445.38;4384290;80;28531;-86
2021/03/08 16:31:40;;;;;;;5.65;1.37;;;;;;;1.20;57.28;99450.11;4376501;80;43227;-86
2021/03/08 16:37:49;;;;;;;3.55;1.35;;;;;;;1.22;58.21;99451.58;4427778;79;28663;-87
2021/03/08 16:44:12;;;;;;;6.95;1.85;;;;;;;0.99;57.73;99455.80;4273534;81;43451;-89
2021/03/08 16:50:18;;;;;;;6.05;1.77;;;;;;;0.89;57.76;99466.52;4298344;81;28657;-89
2021/03/08 16:56:46;;;;;;;5.08;1.70;;;;;;;0.75;59.80;99480.65;4285305;82;28627;-88
2021/03/08 17:03:12;;;;;;;6.08;1.75;;;;;;;0.68;61.32;99481.77;4279133;82;43430;-89
2021/03/08 17:15:47;;;;;;;9.70;1.77;;;;;;;0.58;62.20;99506.19;4396106;79;74392;-89
2021/03/08 17:21:57;;;;;;;6.00;1.90;;;;;;;0.45;63.18;99517.16;4327842;81;43425;-89
2021/03/08 17:28:04;;;;;;;5.37;2.40;;;;;;;0.35;64.79;99513.30;4291012;82;43407;-89
2021/03/08 17:34:06;;;;;;;4.45;1.90;;;;;;;0.17;66.83;99519.92;4303660;81;28994;-88
2021/03/08 17:40:12;;;;;;;5.75;2.00;;;;;;;-0.02;69.40;99529.66;4308775;81;43441;-88
2021/03/08 17:46:22;;;;;;;8.78;2.35;;;;;;;-0.07;79.33;99536.38;4320849;81;42623;-89
2021/03/08 17:52:24;;;;;;;8.98;2.20;;;;;;;-0.18;75.33;99542.22;4335887;81;42519;-88
2021/03/08 17:58:26;;;;;;;8.35;2.65;;;;;;;-0.12;72.40;99543.44;4352740;81;42688;-87
2021/03/08 18:04:32;;;;;;;9.53;3.00;;;;;;;-0.23;76.20;99543.65;4318871;81;42702;-86
2021/03/08 18:10:42;;;;;;;8.50;2.70;;;;;;;-0.47;80.61;99548.97;4244400;81;42565;-86
2021/03/08 18:16:45;;;;;;;8.30;3.65;;;;;;;-0.71;86.54;99553.83;4299445;81;28605;-88
2021/03/08 18:22:50;;;;;;;12.07;3.75;;;;;;;-0.85;87.22;99545.88;4328255;81;43226;-84
2021/03/08 18:28:52;;;;;;;11.57;3.72;;;;;;;-1.06;91.79;99555.81;4294537;81;43218;-86
2021/03/08 18:34:54;;;;;;;10.32;3.72;;;;;;;-1.07;88.22;99559.43;4322782;80;43210;-83
2021/03/08 18:40:58;;;;;;;13.43;4.10;;;;;;;-1.22;95.00;99565.14;4311308;81;43241;-85
2021/03/08 18:47:03;;;;;;;12.35;4.53;;;;;;;-1.32;94.14;99563.84;4247167;83;43222;-86
2021/03/08 18:53:05;;;;;;;10.35;4.05;;;;;;;-1.44;96.61;99564.97;4213709;84;43252;-87
2021/03/08 18:59:07;;;;;;;12.70;4.33;;;;;;;-1.46;98.76;99570.38;4246566;83;43252;-85
2021/03/08 19:05:10;;;;;;;9.40;4.37;;;;;;;-1.37;94.85;99579.75;4274616;83;43269;-86
2021/03/08 19:11:12;;;;;;;14.05;4.50;;;;;;;-1.32;96.30;99578.36;4254105;82;43266;-86
2021/03/08 19:17:20;;;;;;;13.83;4.42;;;;;;;-1.32;100.00;99577.03;4269853;82;43265;-86
2021/03/08 19:23:22;;;;;;;13.50;5.22;;;;;;;-1.18;98.53;99582.84;4253374;82;28607;-87
2021/03/08 19:29:25;;;;;;;10.00;4.50;;;;;;;-1.23;100.00;99591.69;4262144;82;43248;-85
2021/03/08 19:35:28;;;;;;;13.68;4.95;;;;;;;-1.26;100.00;99591.47;4272952;82;43247;-85
2021/03/08 19:41:31;;;;;;;12.07;4.33;;;;;;;-1.16;100.00;99588.80;4283602;82;43265;-87
2021/03/08 19:47:35;;;;;;;17.55;4.78;;;;;;;-1.23;100.00;99595.64;4283178;82;28602;-87
2021/03/08 19:53:38;;;;;;;13.88;4.42;;;;;;;-1.22;100.00;99594.16;4245329;82;43287;-85
2021/03/08 19:59:41;;;;;;;14.87;4.78;;;;;;;-1.36;100.00;99589.33;4252888;82;43587;-88
2021/03/08 20:05:44;;;;;;;13.70;5.28;;;;;;;-1.46;100.00;99592.80;4277752;82;43563;-82
2021/03/08 20:11:46;;;;;;;11.57;5.00;;;;;;;-1.56;100.00;99597.24;4259022;82;43235;-89
2021/03/08 20:17:55;;;;;;;11.65;4.75;;;;;;;-1.60;100.00;99601.95;4208538;84;43241;-84
2021/03/08 20:23:57;;;;;;;21.27;6.77;;;;;;;-1.81;100.00;99588.91;4185318;84;28613;-87
2021/03/08 20:29:59;;;;;;;14.98;5.15;;;;;;;-1.81;100.00;99588.91;4186681;84;50762;-87
2021/03/08 20:36:04;;;;;;;18.02;6.85;;;;;;;-1.90;100.00;99593.69;4192351;84;43921;-89
2021/03/08 20:42:08;;;;;;;21.82;9.03;;;;;;;-1.99;100.00;99587.41;4206443;84;43933;-88
2021/03/08 20:48:13;;;;;;;17.02;7.47;;;;;;;-2.02;100.00;99591.17;4185215;84;43927;-88
2021/03/08 20:54:16;;;;;;;20.37;7.97;;;;;;;-2.12;100.00;99595.09;4179453;84;43990;-84
2021/03/08 21:00:21;;;;;;;23.07;8.85;;;;;;;-2.08;100.00;99596.13;4184435;84;43951;-85
2021/03/08 21:06:29;;;;;;;28.27;10.90;;;;;;;-2.17;100.00;99595.14;4165737;84;43430;-82
2021/03/08 21:12:33;;;;;;;33.30;12.07;;;;;;;-2.07;100.00;99593.36;4201387;82;43754;-80
2021/03/08 21:18:43;;;;;;;34.20;13.53;;;;;;;-2.27;100.00;99588.55;4261919;82;44089;-83
2021/03/08 21:24:49;;;;;;;35.13;12.70;;;;;;;-2.15;100.00;99595.36;4261893;82;44153;-82
2021/03/08 21:30:55;;;;;;;38.05;14.05;;;;;;;-2.22;100.00;99588.14;4280622;82;44477;-81
2021/03/08 21:36:58;;;;;;;35.85;13.00;;;;;;;-2.32;100.00;99598.16;4274295;82;44520;-81
2021/03/08 21:43:01;;;;;;;33.55;12.80;;;;;;;-2.20;100.00;99598.05;4272360;82;44088;-84
2021/03/08 21:49:12;;;;;;;40.75;14.98;;;;;;;-2.23;100.00;99596.52;4220382;82;44431;-83
2021/03/08 21:55:16;;;;;;;40.67;16.45;;;;;;;-2.16;100.00;99600.76;4258643;82;44478;-83
2021/03/08 22:01:18;;;;;;;42.58;15.40;;;;;;;-2.20;100.00;99602.82;4268544;82;44527;-83
2021/03/08 22:07:33;;;;;;;37.83;14.03;;;;;;;-2.33;100.00;99596.50;4529767;76;75661;-84
2021/03/08 22:13:37;;;;;;;37.03;14.18;;;;;;;-2.52;100.00;99593.30;4428814;79;44434;-86
2021/03/08 22:19:39;;;;;;;39.80;14.40;;;;;;;-2.58;100.00;99594.66;4461677;79;44448;-84
2021/03/08 22:25:42;;;;;;;38.70;15.50;;;;;;;-2.71;100.00;99596.22;4414550;79;44434;-83
2021/03/08 22:31:44;;;;;;;47.13;17.50;;;;;;;-2.87;100.00;99595.34;4425931;79;43784;-84
2021/03/08 22:37:46;;;;;;;49.13;18.20;;;;;;;-2.97;100.00;99595.30;4428620;79;43905;-84
2021/03/08 22:43:49;;;;;;;40.38;16.05;;;;;;;-3.12;100.00;99597.43;4444901;79;44426;-83
2021/03/08 22:49:53;;;;;;;42.17;17.60;;;;;;;-3.15;100.00;99596.37;4435669;79;28549;-83
2021/03/08 22:55:55;;;;;;;42.55;16.27;;;;;;;-3.28;100.00;99589.14;4423972;79;44454;-81
2021/03/08 23:01:57;;;;;;;49.20;18.07;;;;;;;-3.40;100.00;99593.64;4419659;79;43795;-81
2021/03/08 23:08:00;;;;;;;49.23;19.42;;;;;;;-3.39;100.00;99589.55;4429505;79;44111;-83
2021/03/08 23:14:03;;;;;;;60.63;21.95;;;;;;;-3.47;100.00;99585.44;4444589;79;44422;-81
2021/03/08 23:20:11;;;;;;;;;;;;;;;-3.60;100.00;99588.70;4448040;79;28555;-82
2021/03/08 23:26:13;;;;;;;62.45;21.80;;;;;;;-3.73;100.00;99591.52;4422427;79;44537;-82
2021/03/08 23:32:15;;;;;;;54.00;20.50;;;;;;;-3.74;100.00;99589.35;4426302;79;44110;-82
2021/03/08 23:38:17;;;;;;;56.02;22.77;;;;;;;-3.78;100.00;99594.02;4432913;79;44134;-83
2021/03/08 23:44:20;;;;;;;60.30;22.07;;;;;;;-3.86;100.00;99590.36;4397714;79;44280;-83
2021/03/08 23:50:25;;;;;;;53.80;21.00;;;;;;;-3.99;100.00;99595.30;4458706;79;44150;-83
2021/03/08 23:56:27;;;;;;;52.53;21.82;;;;;;;-4.13;100.00;99595.55;4427328;79;43989;-83
